Time;durP1;ratioP1;P1;durP2;ratioP2;P2;SDS_P1;SDS_P2;PMS_P1;PMS_P2;Temp;Humidity;BMP_temperature;BMP_pressure;BME280_temperature;BME280_humidity;BME280_pressure;Samples;Min_cycle;Max_cycle;Signal;HPM_P1;HPM_P2
2022/04/12 00:00:15;;;;;;;;;;;;;;;18.41;58.41;99198.09;2083600;28;19986;-46
2022/04/12 00:01:19;;;;;;;;;;;;;;;18.41;58.05;99206.16;2081988;28;19928;-47
2022/04/12 00:02:19;;;;;;;;;;;;;;;18.42;57.99;99202.47;2085410;28;19924;-48
2022/04/12 00:03:21;;;;;;;;;;;;;;;18.42;58.58;99205.16;2085698;28;19932;-45
2022/04/12 00:04:21;;;;;;;;;;;;;;;18.41;57.97;99200.78;2086387;28;20866;-52
2022/04/12 00:05:23;;;;;;;;;;;;;;;18.41;58.27;99200.78;2086815;28;19936;-50
2022/04/12 00:06:24;;;;;;;;;;;;;;;18.42;58.21;99201.66;2087876;28;19931;-53
2022/04/12 00:07:25;;;;;;;;;;;;;;;18.41;58.24;99195.41;2086793;28;20423;-48
2022/04/12 00:08:26;;;;;;;;;;;;;;;18.40;58.36;99199.13;2087074;28;20011;-51
2022/04/12 00:09:28;;;;;;;;;;;;;;;18.41;58.27;99195.41;2086336;28;19928;-51
2022/04/12 00:10:28;;;;;;;;;;;;;;;18.41;58.05;99194.59;2088850;28;19931;-47
2022/04/12 00:11:30;;;;;;;;;;;;;;;18.39;58.13;99194.81;2086718;28;20885;-49
2022/04/12 00:12:31;;;;;;;;;;;;;;;18.39;57.99;99197.50;2082517;28;20374;-45
2022/04/12 00:13:32;;;;;;;;;;;;;;;18.39;58.31;99188.59;2079544;28;19927;-48
2022/04/12 00:14:33;;;;;;;;;;;;;;;18.39;58.21;99192.13;2084406;28;19932;-48
2022/04/12 00:15:34;;;;;;;;;;;;;;;18.37;58.00;99188.78;2083640;28;19959;-47
2022/04/12 00:16:36;;;;;;;;;;;;;;;18.39;58.17;99200.16;2086668;28;20804;-45
2022/04/12 00:19:06;;;;;;;;;;;;;;;18.36;57.94;99192.50;2083693;28;19924;-46
2022/04/12 00:20:09;;;;;;;;;;;;;;;18.37;58.33;99193.31;2084472;28;19920;-46
2022/04/12 00:21:11;;;;;;;;;;;;;;;18.36;58.21;99191.63;2087914;28;19921;-46
2022/04/12 00:22:11;;;;;;;;;;;;;;;18.35;58.29;99188.13;2083214;28;19925;-45
2022/04/12 00:23:14;;;;;;;;;;;;;;;18.35;58.33;99190.81;2088476;28;19931;-47
2022/04/12 00:24:14;;;;;;;;;;;;;;;18.34;58.15;99189.16;2088259;28;20978;-50
2022/04/12 00:25:18;;;;;;;;;;;;;;;18.35;58.12;99190.81;2085734;28;19931;-50
2022/04/12 00:26:19;;;;;;;;;;;;;;;18.34;57.82;99182.97;2080504;28;19925;-49
2022/04/12 00:27:20;;;;;;;;;;;;;;;18.33;58.21;99192.88;2084197;28;19967;-45
2022/04/12 00:28:22;;;;;;;;;;;;;;;18.34;58.17;99188.34;2083980;28;19950;-49
2022/04/12 00:29:23;;;;;;;;;;;;;;;18.31;58.27;99185.00;2083017;28;19946;-45
2022/04/12 00:30:25;;;;;;;;;;;;;;;18.29;57.80;99183.50;2085133;28;19924;-50
2022/04/12 00:31:26;;;;;;;;;;;;;;;18.30;58.27;99188.72;2088578;28;19924;-47
2022/04/12 00:32:28;;;;;;;;;;;;;;;18.29;57.97;99186.19;2082459;28;19929;-47
2022/04/12 00:33:30;;;;;;;;;;;;;;;18.29;58.21;99191.56;2085273;28;19921;-47
2022/04/12 00:34:31;;;;;;;;;;;;;;;18.30;58.63;99190.53;2083363;28;19935;-47
2022/04/12 00:35:33;;;;;;;;;;;;;;;18.28;58.02;99188.06;2086807;28;20552;-47
2022/04/12 00:36:34;;;;;;;;;;;;;;;18.29;57.93;99191.56;2088028;28;20951;-49
2022/04/12 00:37:36;;;;;;;;;;;;;;;18.27;58.40;99182.88;2085758;28;20291;-45
2022/04/12 00:38:37;;;;;;;;;;;;;;;18.27;58.28;99183.69;2085139;28;20588;-47
2022/04/12 00:39:38;;;;;;;;;;;;;;;18.27;58.02;99183.69;2083970;28;19929;-47
2022/04/12 00:40:39;;;;;;;;;;;;;;;18.25;57.98;99185.75;2085022;28;20401;-45
2022/04/12 00:41:40;;;;;;;;;;;;;;;18.27;58.23;99183.69;2086062;28;19924;-50
2022/04/12 00:42:41;;;;;;;;;;;;;;;18.26;57.99;99187.41;2079646;28;20019;-47
2022/04/12 00:43:43;;;;;;;;;;;;;;;18.26;58.05;99182.03;2082866;28;20374;-47
2022/04/12 00:44:44;;;;;;;;;;;;;;;18.25;57.90;99183.06;2084454;28;20403;-46
2022/04/12 00:45:46;;;;;;;;;;;;;;;18.25;57.93;99185.75;2087524;28;19920;-46
2022/04/12 00:46:47;;;;;;;;;;;;;;;18.24;57.97;99178.69;2085592;28;20414;-45
2022/04/12 00:47:50;;;;;;;;;;;;;;;18.26;58.13;99181.22;2087121;28;19928;-45
2022/04/12 00:48:50;;;;;;;;;;;;;;;18.24;58.05;99172.50;2083883;28;19931;-45
2022/04/12 00:49:52;;;;;;;;;;;;;;;18.25;58.17;99176.88;2084528;28;19943;-46
2022/04/12 00:50:52;;;;;;;;;;;;;;;18.24;57.90;99177.88;2074588;28;20777;-48
2022/04/12 00:51:54;;;;;;;;;;;;;;;18.23;58.51;99174.34;2082376;28;19935;-49
2022/04/12 00:52:55;;;;;;;;;;;;;;;18.23;58.15;99165.47;2087341;28;20318;-47
2022/04/12 00:53:58;;;;;;;;;;;;;;;18.22;57.72;99174.53;2084477;28;19925;-47
2022/04/12 00:54:58;;;;;;;;;;;;;;;18.22;58.39;99174.53;2082768;28;19935;-49
2022/04/12 00:56:00;;;;;;;;;;;;;;;18.22;58.05;99177.22;2084702;28;19995;-47
2022/04/12 00:57:01;;;;;;;;;;;;;;;18.22;58.36;99174.53;2078367;28;19928;-44
2022/04/12 00:58:06;;;;;;;;;;;;;;;18.21;58.12;99168.34;2086460;28;19930;-47
2022/04/12 00:59:08;;;;;;;;;;;;;;;18.20;58.51;99166.69;2086515;28;20558;-46
2022/04/12 01:00:10;;;;;;;;;;;;;;;18.20;58.12;99163.16;2087798;28;20910;-47
2022/04/12 01:01:12;;;;;;;;;;;;;;;18.19;58.21;99166.84;2086423;28;19928;-45
2022/04/12 01:02:12;;;;;;;;;;;;;;;18.20;58.22;99169.38;2085502;28;19931;-46
2022/04/12 01:03:15;;;;;;;;;;;;;;;18.19;58.16;99166.84;2084194;28;19936;-46
2022/04/12 01:04:16;;;;;;;;;;;;;;;18.18;58.07;99165.19;2083912;28;19935;-46
2022/04/12 01:05:17;;;;;;;;;;;;;;;18.18;58.00;99162.53;2083150;28;19951;-47
2022/04/12 01:06:19;;;;;;;;;;;;;;;18.17;57.99;99166.22;2084569;28;20382;-45
2022/04/12 01:07:20;;;;;;;;;;;;;;;18.17;58.01;99161.69;2082220;28;19929;-46
2022/04/12 01:08:22;;;;;;;;;;;;;;;18.18;58.13;99162.53;2086639;28;19971;-46
2022/04/12 01:09:25;;;;;;;;;;;;;;;18.17;58.18;99160.88;2086839;28;19958;-47
2022/04/12 01:10:27;;;;;;;;;;;;;;;18.15;58.06;99163.72;2081439;28;19946;-48
2022/04/12 01:11:28;;;;;;;;;;;;;;;18.14;57.96;99161.25;2085972;28;20406;-45
2022/04/12 01:12:30;;;;;;;;;;;;;;;18.14;58.16;99162.06;2079906;28;19924;-44
2022/04/12 01:13:31;;;;;;;;;;;;;;;18.12;58.08;99157.91;2081722;28;19928;-48
2022/04/12 01:14:32;;;;;;;;;;;;;;;18.12;58.08;99169.47;2073359;28;20405;-46
2022/04/12 01:15:34;;;;;;;;;;;;;;;18.14;58.04;99167.44;2085686;28;19956;-46
2022/04/12 01:16:36;;;;;;;;;;;;;;;18.15;58.06;99168.25;2081586;28;19921;-47
2022/04/12 01:17:37;;;;;;;;;;;;;;;18.14;58.13;99158.56;2084862;28;19929;-48
2022/04/12 01:18:40;;;;;;;;;;;;;;;18.14;58.12;99161.25;2084901;28;19924;-46
2022/04/12 01:19:41;;;;;;;;;;;;;;;18.13;58.29;99159.56;2085880;28;20444;-44
2022/04/12 01:20:42;;;;;;;;;;;;;;;18.11;58.51;99157.06;2084185;28;19920;-52
2022/04/12 01:21:49;;;;;;;;;;;;;;;18.11;57.89;99150.84;2091343;28;19925;-44
2022/04/12 01:22:52;;;;;;;;;;;;;;;18.11;57.83;99159.75;2088538;28;19978;-46
2022/04/12 01:23:59;;;;;;;;;;;;;;;18.11;58.21;99161.59;2091541;28;19931;-48
2022/04/12 01:24:59;;;;;;;;;;;;;;;18.09;57.97;99159.94;2089879;28;19959;-48
2022/04/12 01:26:01;;;;;;;;;;;;;;;18.11;58.25;99158.91;2085202;28;20583;-44
2022/04/12 01:27:02;;;;;;;;;;;;;;;18.09;58.60;99157.25;2084884;28;19924;-47
2022/04/12 01:28:04;;;;;;;;;;;;;;;18.09;58.17;99156.44;2086452;28;19927;-46
2022/04/12 01:29:04;;;;;;;;;;;;;;;18.07;57.96;99159.28;2084908;28;19931;-44
2022/04/12 01:30:06;;;;;;;;;;;;;;;18.06;57.83;99154.94;2083047;28;19947;-44
2022/04/12 01:31:07;;;;;;;;;;;;;;;18.06;58.17;99152.25;2089973;28;19921;-46
2022/04/12 01:32:09;;;;;;;;;;;;;;;18.04;57.88;99156.16;2091896;28;20487;-46
2022/04/12 01:33:09;;;;;;;;;;;;;;;18.06;58.00;99160.31;2083173;28;19924;-48
2022/04/12 01:34:11;;;;;;;;;;;;;;;18.05;58.37;99155.97;2090316;28;19931;-45
2022/04/12 01:35:11;;;;;;;;;;;;;;;18.06;58.02;99156.81;2086011;28;20412;-43
2022/04/12 01:36:13;;;;;;;;;;;;;;;18.04;58.02;99159.66;2085509;28;19928;-49
2022/04/12 01:37:14;;;;;;;;;;;;;;;18.04;58.00;99156.97;2086537;28;19924;-47
2022/04/12 01:38:15;;;;;;;;;;;;;;;18.03;58.18;99155.31;2087184;28;19921;-49
2022/04/12 01:39:17;;;;;;;;;;;;;;;18.04;58.47;99151.59;2083885;28;19920;-45
2022/04/12 01:40:19;;;;;;;;;;;;;;;18.02;58.24;99145.59;2085457;28;19929;-47
2022/04/12 01:41:19;;;;;;;;;;;;;;;18.03;58.37;99141.06;2087638;28;19989;-45
2022/04/12 01:42:21;;;;;;;;;;;;;;;18.02;58.07;99148.28;2088960;28;19958;-46
2022/04/12 01:43:21;;;;;;;;;;;;;;;18.01;58.22;99146.63;2088796;28;19920;-46
2022/04/12 01:44:23;;;;;;;;;;;;;;;18.01;58.31;99140.41;2086377;28;21256;-47
2022/04/12 01:45:24;;;;;;;;;;;;;;;18.01;58.74;99137.75;2082559;28;19985;-46
2022/04/12 01:46:26;;;;;;;;;;;;;;;18.01;58.23;99145.78;2087684;28;20565;-45
2022/04/12 01:47:26;;;;;;;;;;;;;;;18.02;58.31;99150.13;2089736;28;19928;-45
2022/04/12 01:48:28;;;;;;;;;;;;;;;18.02;58.12;99140.22;2085896;28;19935;-45
2022/04/12 01:49:28;;;;;;;;;;;;;;;18.02;58.30;99140.22;2088946;28;19974;-46
2022/04/12 01:50:30;;;;;;;;;;;;;;;17.99;58.35;99147.81;2087565;28;20344;-46
2022/04/12 01:51:30;;;;;;;;;;;;;;;18.00;58.37;99144.13;2085887;28;19983;-45
2022/04/12 01:52:33;;;;;;;;;;;;;;;18.01;58.07;99145.78;2089663;28;19925;-44
2022/04/12 01:53:33;;;;;;;;;;;;;;;17.99;58.09;99153.19;2086843;28;19925;-46
2022/04/12 01:54:36;;;;;;;;;;;;;;;17.99;57.91;99145.13;2085649;28;19935;-43
2022/04/12 01:55:36;;;;;;;;;;;;;;;17.98;57.79;99152.38;2085207;28;19931;-48
2022/04/12 01:56:38;;;;;;;;;;;;;;;17.98;57.76;99146.16;2085939;28;19928;-46
2022/04/12 01:57:39;;;;;;;;;;;;;;;17.96;57.72;99149.03;2084278;28;21106;-46
2022/04/12 01:58:42;;;;;;;;;;;;;;;17.96;57.91;99150.88;2089505;28;19932;-46
2022/04/12 01:59:42;;;;;;;;;;;;;;;17.96;58.11;99145.50;2086500;28;19936;-45
2022/04/12 02:00:44;;;;;;;;;;;;;;;17.96;58.19;99140.16;2083954;28;19940;-46
2022/04/12 02:01:44;;;;;;;;;;;;;;;17.95;58.21;99146.53;2087319;28;19957;-46
2022/04/12 02:02:46;;;;;;;;;;;;;;;17.95;57.90;99150.06;2087668;28;19929;-45
2022/04/12 02:03:47;;;;;;;;;;;;;;;17.96;57.68;99146.34;2087590;28;19931;-49
2022/04/12 02:04:48;;;;;;;;;;;;;;;17.93;57.78;99146.72;2086520;28;20605;-45
2022/04/12 02:05:49;;;;;;;;;;;;;;;17.93;57.93;99146.72;2090528;28;20405;-43
2022/04/12 02:06:50;;;;;;;;;;;;;;;17.94;58.06;99151.09;2088547;28;19927;-47
2022/04/12 02:07:52;;;;;;;;;;;;;;;17.93;57.66;99148.56;2089866;28;19920;-44
2022/04/12 02:08:52;;;;;;;;;;;;;;;17.93;58.04;99149.41;2086191;28;20027;-47
2022/04/12 02:09:55;;;;;;;;;;;;;;;17.93;57.60;99149.41;2085656;28;19999;-47
2022/04/12 02:10:55;;;;;;;;;;;;;;;17.93;58.02;99146.72;2085784;28;19985;-44
2022/04/12 02:11:58;;;;;;;;;;;;;;;17.91;58.04;99146.06;2085073;28;20010;-44
2022/04/12 02:12:59;;;;;;;;;;;;;;;17.92;57.80;99144.25;2087655;28;19974;-45
2022/04/12 02:14:00;;;;;;;;;;;;;;;17.91;58.21;99147.91;2088222;28;19927;-45
2022/04/12 02:15:01;;;;;;;;;;;;;;;17.89;58.11;99140.06;2086125;28;19928;-47
2022/04/12 02:16:02;;;;;;;;;;;;;;;17.90;57.66;99143.59;2086960;28;19932;-44
2022/04/12 02:17:03;;;;;;;;;;;;;;;17.88;58.02;99135.69;2085413;28;19925;-46
2022/04/12 02:18:04;;;;;;;;;;;;;;;17.88;57.96;99143.75;2088530;28;19920;-45
2022/04/12 02:19:05;;;;;;;;;;;;;;;17.89;58.26;99141.94;2087237;28;19967;-45
2022/04/12 02:20:07;;;;;;;;;;;;;;;17.89;58.06;99141.94;2084613;28;19928;-55
2022/04/12 02:21:07;;;;;;;;;;;;;;;17.87;58.18;99144.78;2089197;28;19927;-47
2022/04/12 02:22:09;;;;;;;;;;;;;;;17.86;57.97;99138.59;2086538;28;20397;-51
2022/04/12 02:23:10;;;;;;;;;;;;;;;17.87;58.36;99139.41;2084467;28;20409;-48
2022/04/12 02:24:11;;;;;;;;;;;;;;;17.85;57.94;99138.75;2085056;28;20040;-51
2022/04/12 02:25:13;;;;;;;;;;;;;;;17.85;58.12;99138.75;2086696;28;20015;-48
2022/04/12 02:26:15;;;;;;;;;;;;;;;17.86;58.01;99138.59;2090081;28;19924;-53
2022/04/12 02:27:15;;;;;;;;;;;;;;;17.87;58.13;99147.47;2088864;28;19924;-49
2022/04/12 02:28:17;;;;;;;;;;;;;;;17.85;58.02;99147.63;2089309;28;20011;-53
2022/04/12 02:29:18;;;;;;;;;;;;;;;17.85;57.93;99142.28;2089406;28;19978;-48
2022/04/12 02:30:20;;;;;;;;;;;;;;;17.83;57.95;99140.81;2085393;28;19986;-51
2022/04/12 02:31:20;;;;;;;;;;;;;;;17.83;57.97;99141.66;2086014;28;20011;-51
2022/04/12 02:32:22;;;;;;;;;;;;;;;17.84;58.33;99139.78;2085659;28;21761;-50
2022/04/12 02:33:22;;;;;;;;;;;;;;;17.84;58.11;99134.44;2088488;28;19978;-52
2022/04/12 02:34:24;;;;;;;;;;;;;;;17.84;58.25;99145.16;2086428;28;19933;-49
2022/04/12 02:35:25;;;;;;;;;;;;;;;17.83;58.04;99132.78;2090742;28;19931;-54
2022/04/12 02:36:26;;;;;;;;;;;;;;;17.84;57.68;99142.47;2089105;28;19921;-50
2022/04/12 02:37:27;;;;;;;;;;;;;;;17.82;58.30;99131.09;2087187;28;19928;-51
2022/04/12 02:38:28;;;;;;;;;;;;;;;17.84;58.17;99134.44;2085247;28;20445;-55
2022/04/12 02:39:29;;;;;;;;;;;;;;;17.82;58.38;99139.97;2088382;28;19960;-54
2022/04/12 02:40:32;;;;;;;;;;;;;;;17.82;58.00;99133.78;2087846;28;19925;-48
2022/04/12 02:41:32;;;;;;;;;;;;;;;17.80;58.03;99133.13;2087666;28;20406;-53
2022/04/12 02:42:34;;;;;;;;;;;;;;;17.82;57.99;99136.47;2085510;28;19935;-48
2022/04/12 02:43:34;;;;;;;;;;;;;;;17.81;58.04;99138.31;2088568;28;20394;-50
2022/04/12 02:44:36;;;;;;;;;;;;;;;17.82;57.90;99133.78;2085519;28;19920;-47
2022/04/12 02:45:37;;;;;;;;;;;;;;;17.78;58.18;99125.28;2085262;28;19950;-45
2022/04/12 02:46:38;;;;;;;;;;;;;;;17.80;57.85;99133.97;2085214;28;19924;-49
2022/04/12 02:47:39;;;;;;;;;;;;;;;17.80;58.36;99128.59;2087208;28;19931;-49
2022/04/12 02:48:40;;;;;;;;;;;;;;;17.79;58.24;99131.47;2084253;28;19982;-47
2022/04/12 02:49:41;;;;;;;;;;;;;;;17.79;58.24;99131.47;2084701;28;19924;-49
2022/04/12 02:50:42;;;;;;;;;;;;;;;17.79;58.38;99131.47;2085400;28;19924;-47
2022/04/12 02:51:45;;;;;;;;;;;;;;;17.78;58.25;99132.47;2089348;28;19936;-49
2022/04/12 02:52:46;;;;;;;;;;;;;;;17.78;58.55;99127.09;2085844;28;20647;-48
2022/04/12 02:53:47;;;;;;;;;;;;;;;17.78;57.97;99127.09;2085027;28;20013;-51
2022/04/12 02:54:48;;;;;;;;;;;;;;;17.77;58.17;99125.41;2086154;28;19936;-49
2022/04/12 02:55:51;;;;;;;;;;;;;;;17.76;58.05;99121.91;2087522;28;19920;-49
2022/04/12 02:56:51;;;;;;;;;;;;;;;17.77;58.32;99128.09;2089336;28;19928;-46
2022/04/12 02:57:53;;;;;;;;;;;;;;;17.75;58.52;99125.63;2087488;28;21554;-47
2022/04/12 02:58:54;;;;;;;;;;;;;;;17.78;58.09;99127.09;2088700;28;20488;-48
2022/04/12 02:59:56;;;;;;;;;;;;;;;17.76;58.27;99118.41;2088925;28;19978;-46
2022/04/12 03:00:56;;;;;;;;;;;;;;;17.74;57.79;99117.75;2091643;28;19924;-45
2022/04/12 03:01:58;;;;;;;;;;;;;;;17.75;57.96;99117.56;2092297;28;19927;-51
2022/04/12 03:02:58;;;;;;;;;;;;;;;17.74;58.17;99115.06;2085760;28;19928;-45
2022/04/12 03:04:00;;;;;;;;;;;;;;;17.76;58.12;99118.41;2084956;28;20023;-46
2022/04/12 03:05:00;;;;;;;;;;;;;;;17.73;58.06;99119.59;2086316;28;19980;-50
2022/04/12 03:06:02;;;;;;;;;;;;;;;17.74;58.07;99117.75;2084642;28;20510;-50
2022/04/12 03:07:02;;;;;;;;;;;;;;;17.73;58.42;99116.91;2086276;28;19924;-49
2022/04/12 03:08:04;;;;;;;;;;;;;;;17.72;58.44;99115.25;2086597;28;20010;-52
2022/04/12 03:09:05;;;;;;;;;;;;;;;17.73;58.40;99111.53;2083545;28;19935;-48
2022/04/12 03:10:07;;;;;;;;;;;;;;;17.74;58.08;99117.75;2088452;28;19936;-51
2022/04/12 03:11:09;;;;;;;;;;;;;;;17.72;57.72;99114.41;2088349;28;19924;-49
2022/04/12 03:12:10;;;;;;;;;;;;;;;17.72;57.80;99114.41;2088300;28;20015;-50
2022/04/12 03:13:11;;;;;;;;;;;;;;;17.71;58.27;99113.56;2086752;28;19981;-49
2022/04/12 03:14:12;;;;;;;;;;;;;;;17.71;58.18;99123.47;2088004;28;20412;-48
2022/04/12 03:15:13;;;;;;;;;;;;;;;17.72;58.42;99114.41;2084653;28;19924;-51
2022/04/12 03:16:14;;;;;;;;;;;;;;;17.70;58.54;99125.34;2086642;28;19924;-51
2022/04/12 03:17:15;;;;;;;;;;;;;;;17.71;58.41;99115.44;2088521;28;19932;-49
2022/04/12 03:18:17;;;;;;;;;;;;;;;17.71;58.30;99115.44;2087240;28;20012;-50
2022/04/12 03:19:18;;;;;;;;;;;;;;;17.73;58.35;99124.13;2087030;28;19924;-48
2022/04/12 03:20:19;;;;;;;;;;;;;;;17.70;58.37;99121.81;2088654;28;20023;-50
2022/04/12 03:21:20;;;;;;;;;;;;;;;17.69;58.01;99115.63;2089101;28;19931;-52
2022/04/12 03:22:21;;;;;;;;;;;;;;;17.71;58.21;99120.78;2090818;28;20734;-50
2022/04/12 03:23:22;;;;;;;;;;;;;;;17.71;58.33;99118.13;2083561;28;19935;-52
2022/04/12 03:24:23;;;;;;;;;;;;;;;17.69;58.00;99122.81;2084913;28;19974;-53
2022/04/12 03:25:24;;;;;;;;;;;;;;;17.69;57.89;99114.78;2082720;28;20067;-53
2022/04/12 03:26:27;;;;;;;;;;;;;;;17.67;58.34;99122.19;2083734;28;19948;-49
2022/04/12 03:27:27;;;;;;;;;;;;;;;17.68;58.21;99122.00;2084784;28;19980;-48
2022/04/12 03:28:29;;;;;;;;;;;;;;;17.69;58.28;99117.47;2085416;28;19932;-47
2022/04/12 03:29:29;;;;;;;;;;;;;;;17.67;57.95;99120.34;2086999;28;19924;-50
2022/04/12 03:30:31;;;;;;;;;;;;;;;17.65;58.44;99119.69;2092804;28;19932;-45
2022/04/12 03:31:31;;;;;;;;;;;;;;;17.66;58.26;99121.34;2091785;28;20298;-51
2022/04/12 03:32:33;;;;;;;;;;;;;;;17.66;58.49;99124.03;2084578;28;19934;-48
2022/04/12 03:33:34;;;;;;;;;;;;;;;17.65;58.10;99125.06;2084588;28;20564;-50
2022/04/12 03:34:36;;;;;;;;;;;;;;;17.63;58.27;99125.25;2088494;28;19928;-52
2022/04/12 03:35:37;;;;;;;;;;;;;;;17.63;58.29;99117.22;2086264;28;19920;-51
2022/04/12 03:36:39;;;;;;;;;;;;;;;17.63;58.25;99122.56;2089113;28;20371;-56
2022/04/12 03:37:39;;;;;;;;;;;;;;;17.61;57.82;99116.56;2086404;28;19926;-52
2022/04/12 03:38:48;;;;;;;;;;;;;;;17.64;58.22;99120.72;2082081;28;20014;-48
2022/04/12 03:39:50;;;;;;;;;;;;;;;17.62;58.02;99115.53;2083182;28;20011;-52
2022/04/12 03:40:51;;;;;;;;;;;;;;;17.62;58.27;99120.88;2084512;28;20021;-49
2022/04/12 03:41:53;;;;;;;;;;;;;;;17.62;58.21;99123.56;2087569;28;19955;-52
2022/04/12 03:42:55;;;;;;;;;;;;;;;17.61;58.17;99118.41;2085025;28;19935;-50
2022/04/12 03:43:55;;;;;;;;;;;;;;;17.60;58.06;99114.88;2086990;28;19932;-52
2022/04/12 03:44:57;;;;;;;;;;;;;;;17.59;58.06;99123.94;2085441;28;21013;-49
2022/04/12 03:45:57;;;;;;;;;;;;;;;17.58;58.31;99119.59;2083613;28;19921;-52
2022/04/12 03:46:59;;;;;;;;;;;;;;;17.61;57.76;99116.56;2082446;28;19934;-53
2022/04/12 03:48:00;;;;;;;;;;;;;;;17.62;58.12;99117.38;2086647;28;19929;-48
2022/04/12 03:49:01;;;;;;;;;;;;;;;17.60;58.10;99117.56;2086257;28;19948;-50
2022/04/12 03:50:02;;;;;;;;;;;;;;;17.59;58.09;99110.53;2085951;28;20291;-48
2022/04/12 03:51:03;;;;;;;;;;;;;;;17.59;58.23;99112.38;2085219;28;19935;-49
2022/04/12 03:52:04;;;;;;;;;;;;;;;17.58;58.30;99108.88;2085103;28;19927;-50
2022/04/12 03:53:06;;;;;;;;;;;;;;;17.58;58.51;99108.06;2082896;28;19925;-51
2022/04/12 03:54:06;;;;;;;;;;;;;;;17.58;58.16;99110.75;2087603;28;19968;-51
2022/04/12 03:55:10;;;;;;;;;;;;;;;17.59;57.92;99121.25;2090136;28;19920;-50
2022/04/12 03:56:11;;;;;;;;;;;;;;;17.59;58.23;99115.91;2086525;28;20473;-51
2022/04/12 03:57:13;;;;;;;;;;;;;;;17.58;58.14;99116.09;2084133;28;19931;-48
2022/04/12 03:58:19;;;;;;;;;;;;;;;17.56;58.00;99113.59;2087338;28;19924;-47
2022/04/12 03:59:21;;;;;;;;;;;;;;;17.57;58.31;99111.75;2083709;28;20019;-49
2022/04/12 04:00:21;;;;;;;;;;;;;;;17.57;58.51;99107.19;2084028;28;19920;-47
2022/04/12 04:01:23;;;;;;;;;;;;;;;17.56;58.22;99108.22;2087825;28;19971;-47
2022/04/12 04:02:23;;;;;;;;;;;;;;;17.56;57.99;99110.09;2090076;28;21020;-50
2022/04/12 04:03:25;;;;;;;;;;;;;;;17.56;58.35;99112.75;2089151;28;19924;-48
2022/04/12 04:04:25;;;;;;;;;;;;;;;17.56;58.04;99108.22;2087881;28;19933;-48
2022/04/12 04:05:27;;;;;;;;;;;;;;;17.54;57.73;99112.94;2089771;28;20647;-46
2022/04/12 04:06:28;;;;;;;;;;;;;;;17.56;57.99;99110.09;2089632;28;20984;-47
2022/04/12 04:07:29;;;;;;;;;;;;;;;17.55;57.65;99111.06;2082040;28;19925;-46
2022/04/12 04:08:30;;;;;;;;;;;;;;;17.54;57.80;99117.47;2086865;28;19929;-46
2022/04/12 04:09:31;;;;;;;;;;;;;;;17.57;57.62;99117.09;2083915;28;20010;-45
2022/04/12 04:10:32;;;;;;;;;;;;;;;17.61;57.40;99113.03;2085092;28;19940;-47
2022/04/12 04:11:33;;;;;;;;;;;;;;;17.63;57.42;99111.84;2086699;28;20432;-46
2022/04/12 04:12:35;;;;;;;;;;;;;;;17.67;57.68;99116.84;2085474;28;19924;-48
2022/04/12 04:13:37;;;;;;;;;;;;;;;17.70;57.61;99113.78;2086186;28;19959;-48
2022/04/12 04:14:39;;;;;;;;;;;;;;;17.72;57.51;99114.41;2087245;28;19968;-51
2022/04/12 04:15:41;;;;;;;;;;;;;;;17.74;57.47;99121.25;2085843;28;19925;-46
2022/04/12 04:16:42;;;;;;;;;;;;;;;17.77;57.34;99120.88;2087866;28;19920;-46
2022/04/12 04:17:44;;;;;;;;;;;;;;;17.81;57.53;99121.38;2083175;28;20679;-47
2022/04/12 04:18:44;;;;;;;;;;;;;;;17.82;57.31;99123.88;2084970;28;19965;-47
2022/04/12 04:19:46;;;;;;;;;;;;;;;17.84;57.26;99123.69;2087178;28;19928;-48
2022/04/12 04:20:46;;;;;;;;;;;;;;;17.86;57.30;99133.22;2084698;28;19976;-48
2022/04/12 04:21:48;;;;;;;;;;;;;;;17.88;57.19;99127.66;2084775;28;20778;-51
2022/04/12 04:22:48;;;;;;;;;;;;;;;17.91;57.19;99127.28;2081798;28;19936;-46
2022/04/12 04:23:50;;;;;;;;;;;;;;;17.93;57.17;99125.25;2085505;28;19928;-50
2022/04/12 04:24:50;;;;;;;;;;;;;;;17.95;57.09;99125.91;2085295;28;20493;-45
2022/04/12 04:25:52;;;;;;;;;;;;;;;17.97;57.16;99121.19;2085764;28;19920;-49
2022/04/12 04:26:55;;;;;;;;;;;;;;;17.98;57.20;99124.69;2085116;28;19920;-48
2022/04/12 04:27:58;;;;;;;;;;;;;;;17.99;57.13;99120.97;2083341;28;19982;-45
2022/04/12 04:28:58;;;;;;;;;;;;;;;18.01;57.25;99130.50;2082042;28;19967;-48
2022/04/12 04:30:00;;;;;;;;;;;;;;;18.01;57.12;99125.16;2084095;28;19947;-48
2022/04/12 04:31:00;;;;;;;;;;;;;;;18.02;57.09;99121.44;2086271;28;19921;-48
2022/04/12 04:32:02;;;;;;;;;;;;;;;18.05;57.15;99122.91;2086720;28;21067;-50
2022/04/12 04:33:02;;;;;;;;;;;;;;;18.05;57.03;99128.28;2085721;28;19924;-46
2022/04/12 04:34:04;;;;;;;;;;;;;;;18.05;57.14;99121.09;2090196;28;20007;-49
2022/04/12 04:35:05;;;;;;;;;;;;;;;18.07;57.25;99124.38;2089366;28;19969;-46
2022/04/12 04:36:07;;;;;;;;;;;;;;;18.08;57.04;99120.69;2085437;28;19970;-49
2022/04/12 04:37:08;;;;;;;;;;;;;;;18.09;57.35;99126.91;2084776;28;19920;-47
2022/04/12 04:38:09;;;;;;;;;;;;;;;18.11;57.03;99118.63;2084319;28;19924;-48
2022/04/12 04:39:10;;;;;;;;;;;;;;;18.09;57.02;99116.16;2083816;28;19955;-51
2022/04/12 04:40:14;;;;;;;;;;;;;;;18.12;57.18;99123.00;2083832;28;19920;-49
2022/04/12 04:41:15;;;;;;;;;;;;;;;18.15;57.06;99119.94;2083268;28;19927;-48
2022/04/12 04:42:16;;;;;;;;;;;;;;;18.16;57.22;99121.59;2086233;28;19921;-49
2022/04/12 04:43:19;;;;;;;;;;;;;;;18.16;56.93;99125.09;2087692;28;19921;-45
2022/04/12 04:44:19;;;;;;;;;;;;;;;18.16;56.88;99122.41;2082033;28;19936;-50
2022/04/12 04:45:22;;;;;;;;;;;;;;;18.17;57.14;99124.09;2086223;28;19921;-47
2022/04/12 04:46:22;;;;;;;;;;;;;;;18.18;56.84;99127.63;2083352;28;19920;-49
2022/04/12 04:47:23;;;;;;;;;;;;;;;18.21;57.01;99119.19;2084589;28;19920;-51
2022/04/12 04:48:24;;;;;;;;;;;;;;;18.22;56.80;99126.19;2087164;28;19924;-48
2022/04/12 04:49:25;;;;;;;;;;;;;;;18.23;56.98;99127.88;2083330;28;19920;-48
2022/04/12 04:50:27;;;;;;;;;;;;;;;18.26;56.95;99132.88;2084072;28;19952;-54
2022/04/12 04:51:29;;;;;;;;;;;;;;;18.25;56.92;99131.22;2081483;28;19924;-49
2022/04/12 04:52:29;;;;;;;;;;;;;;;18.25;56.76;99133.91;2086995;28;19925;-46
2022/04/12 04:53:31;;;;;;;;;;;;;;;18.26;56.92;99127.50;2086062;28;19943;-51
2022/04/12 04:54:31;;;;;;;;;;;;;;;18.24;56.81;99130.38;2087196;28;20015;-52
2022/04/12 04:55:35;;;;;;;;;;;;;;;18.26;56.74;99132.88;2086145;28;20321;-48
2022/04/12 04:56:35;;;;;;;;;;;;;;;18.29;56.80;99129.81;2085316;28;19924;-48
2022/04/12 04:57:38;;;;;;;;;;;;;;;18.28;56.98;99133.53;2084569;28;19931;-49
2022/04/12 04:58:41;;;;;;;;;;;;;;;18.27;56.83;99131.84;2084023;28;19920;-51
2022/04/12 04:59:42;;;;;;;;;;;;;;;18.29;56.88;99127.13;2085833;28;25034;-48
2022/04/12 05:00:44;;;;;;;;;;;;;;;18.30;56.71;99134.16;2084749;28;19928;-50
2022/04/12 05:01:44;;;;;;;;;;;;;;;18.28;57.00;99137.03;2084276;28;19967;-48
2022/04/12 05:02:46;;;;;;;;;;;;;;;18.30;56.96;99134.16;2083997;28;19935;-47
2022/04/12 05:03:47;;;;;;;;;;;;;;;18.30;56.93;99139.53;2087551;28;19924;-50
2022/04/12 05:04:48;;;;;;;;;;;;;;;18.31;56.77;99130.47;2083287;28;19921;-51
2022/04/12 05:05:50;;;;;;;;;;;;;;;18.30;56.79;99134.16;2085214;28;20983;-48
2022/04/12 05:06:50;;;;;;;;;;;;;;;18.29;56.80;99138.69;2085933;28;19931;-47
2022/04/12 05:07:53;;;;;;;;;;;;;;;18.31;56.77;99139.34;2086732;28;19921;-50
2022/04/12 05:08:54;;;;;;;;;;;;;;;18.33;56.81;99139.16;2086370;28;20492;-49
2022/04/12 05:09:55;;;;;;;;;;;;;;;18.33;56.96;99141.00;2084643;28;19925;-48
2022/04/12 05:10:56;;;;;;;;;;;;;;;18.31;56.79;99143.88;2084141;28;19924;-47
2022/04/12 05:11:57;;;;;;;;;;;;;;;18.33;56.75;99139.16;2085128;28;19924;-49
2022/04/12 05:12:59;;;;;;;;;;;;;;;18.35;56.69;99142.47;2088180;28;19934;-47
2022/04/12 05:14:02;;;;;;;;;;;;;;;18.33;57.01;99141.00;2084495;28;20015;-49
2022/04/12 05:15:03;;;;;;;;;;;;;;;18.35;56.69;99142.47;2084279;28;19928;-50
2022/04/12 05:16:05;;;;;;;;;;;;;;;18.37;56.83;99143.13;2081193;28;20398;-50
2022/04/12 05:17:05;;;;;;;;;;;;;;;18.37;56.59;99150.34;2087953;28;20301;-47
2022/04/12 05:18:07;;;;;;;;;;;;;;;18.37;56.91;99148.50;2085543;28;19928;-51
2022/04/12 05:19:07;;;;;;;;;;;;;;;18.36;56.70;99148.66;2087551;28;19924;-47
2022/04/12 05:20:10;;;;;;;;;;;;;;;18.35;56.57;99145.16;2088672;28;19925;-48
2022/04/12 05:21:10;;;;;;;;;;;;;;;18.35;56.76;99152.38;2081114;28;20378;-47